createdAt,value
2019-03-26T00:00:00.439Z,29.21
2019-03-26T00:00:01.653Z,29.20
2019-03-26T00:00:02.878Z,29.19
2019-03-26T00:00:04.117Z,29.18
2019-03-26T00:00:05.323Z,29.23
2019-03-26T00:00:06.532Z,29.21
2019-03-26T00:00:07.753Z,29.17
2019-03-26T00:00:08.976Z,29.17
2019-03-26T00:00:10.190Z,29.24
2019-03-26T00:00:11.399Z,29.18
2019-03-26T00:00:12.614Z,29.17
2019-03-26T00:00:13.821Z,29.23
2019-03-26T00:00:15.031Z,29.23
2019-03-26T00:00:16.241Z,29.18
2019-03-26T00:00:17.446Z,29.26
2019-03-26T00:00:18.673Z,29.26
2019-03-26T00:00:19.884Z,29.23
2019-03-26T00:00:21.101Z,29.23
2019-03-26T00:00:22.315Z,29.20
2019-03-26T00:00:23.526Z,29.23
2019-03-26T00:00:24.736Z,29.26
2019-03-26T00:00:25.947Z,29.23
2019-03-26T00:00:27.160Z,29.24
2019-03-26T00:00:28.372Z,29.20
2019-03-26T00:00:29.582Z,29.17
2019-03-26T00:00:30.790Z,29.18
2019-03-26T00:00:32.007Z,29.18
2019-03-26T00:00:33.215Z,29.21
2019-03-26T00:00:34.422Z,29.20
2019-03-26T00:00:35.629Z,29.23
2019-03-26T00:00:36.892Z,29.21
2019-03-26T00:00:38.112Z,29.18
2019-03-26T00:00:39.327Z,29.23
2019-03-26T00:00:40.548Z,29.18
2019-03-26T00:00:41.753Z,29.24
2019-03-26T00:00:42.960Z,29.21
2019-03-26T00:00:44.166Z,29.23
2019-03-26T00:00:45.375Z,29.27
2019-03-26T00:00:46.580Z,29.21
2019-03-26T00:00:47.793Z,29.26
2019-03-26T00:00:48.998Z,29.26
2019-03-26T00:00:50.209Z,29.26
2019-03-26T00:00:51.425Z,29.23
2019-03-26T00:00:52.638Z,29.24
2019-03-26T00:00:53.849Z,29.28
2019-03-26T00:00:55.068Z,29.24
2019-03-26T00:00:56.295Z,29.27
2019-03-26T00:00:57.517Z,29.21
2019-03-26T00:00:58.722Z,29.29
2019-03-26T00:00:59.937Z,29.27
2019-03-26T00:01:01.142Z,29.29
2019-03-26T00:01:02.349Z,29.29
2019-03-26T00:01:03.566Z,29.27
2019-03-26T00:01:04.777Z,29.24
2019-03-26T00:01:05.982Z,29.24
2019-03-26T00:01:07.192Z,29.24
2019-03-26T00:01:08.403Z,29.26
2019-03-26T00:01:09.605Z,29.26
2019-03-26T00:01:10.814Z,29.29
2019-03-26T00:01:12.020Z,29.21
2019-03-26T00:01:13.243Z,29.24
2019-03-26T00:01:14.464Z,29.27
2019-03-26T00:01:15.678Z,29.23
2019-03-26T00:01:16.890Z,29.23
2019-03-26T00:01:18.096Z,29.27
2019-03-26T00:01:19.339Z,29.24
2019-03-26T00:01:20.550Z,29.23
2019-03-26T00:01:21.775Z,29.20
2019-03-26T00:01:22.981Z,29.18
2019-03-26T00:01:24.191Z,29.21
2019-03-26T00:01:25.398Z,29.23
2019-03-26T00:01:26.605Z,29.23
2019-03-26T00:01:27.814Z,29.20
2019-03-26T00:01:29.023Z,29.21
2019-03-26T00:01:30.238Z,29.20
2019-03-26T00:01:31.525Z,29.23
2019-03-26T00:01:32.733Z,29.24
2019-03-26T00:01:33.937Z,29.20
2019-03-26T00:01:35.149Z,29.24
2019-03-26T00:01:36.374Z,29.21
2019-03-26T00:01:37.581Z,29.24
2019-03-26T00:01:38.808Z,29.21
2019-03-26T00:01:40.097Z,29.20
2019-03-26T00:01:41.308Z,29.24
2019-03-26T00:01:42.525Z,29.26
2019-03-26T00:01:43.734Z,29.21
2019-03-26T00:01:44.939Z,29.26
2019-03-26T00:01:46.144Z,29.27
2019-03-26T00:01:47.359Z,29.21
2019-03-26T00:01:48.571Z,29.26
2019-03-26T00:01:49.774Z,29.23
2019-03-26T00:01:50.984Z,29.21
2019-03-26T00:01:52.191Z,29.20
2019-03-26T00:01:53.403Z,29.18
2019-03-26T00:01:54.620Z,29.20
2019-03-26T00:01:55.869Z,29.26
2019-03-26T00:01:57.099Z,29.24
2019-03-26T00:01:58.303Z,29.24
2019-03-26T00:01:59.517Z,29.30
2019-03-26T00:02:00.734Z,29.21
2019-03-26T00:02:02.023Z,29.26
2019-03-26T00:02:03.227Z,29.27
2019-03-26T00:02:04.434Z,29.26
2019-03-26T00:02:05.646Z,29.23
2019-03-26T00:02:06.852Z,29.29
2019-03-26T00:02:08.065Z,29.24
2019-03-26T00:02:09.281Z,29.27
2019-03-26T00:02:10.491Z,29.24
2019-03-26T00:02:11.709Z,29.30
2019-03-26T00:02:12.924Z,29.26
2019-03-26T00:02:14.138Z,29.28
2019-03-26T00:02:15.347Z,29.29
2019-03-26T00:02:16.557Z,29.28
2019-03-26T00:02:17.761Z,29.30
2019-03-26T00:02:18.973Z,29.27
2019-03-26T00:02:20.202Z,29.30
2019-03-26T00:02:21.412Z,29.29
2019-03-26T00:02:22.622Z,29.29
2019-03-26T00:02:23.831Z,29.33
2019-03-26T00:02:25.051Z,29.32
2019-03-26T00:02:26.256Z,29.27
2019-03-26T00:02:27.475Z,29.27
2019-03-26T00:02:28.759Z,29.29
2019-03-26T00:02:29.965Z,29.27
2019-03-26T00:02:31.181Z,29.29
2019-03-26T00:02:32.398Z,29.30
2019-03-26T00:02:33.614Z,29.27
2019-03-26T00:02:34.822Z,29.29
2019-03-26T00:02:36.029Z,29.29
2019-03-26T00:02:37.238Z,29.29
2019-03-26T00:02:38.450Z,29.29
2019-03-26T00:02:39.662Z,29.27
2019-03-26T00:02:40.873Z,29.29
2019-03-26T00:02:42.081Z,29.30
2019-03-26T00:02:43.289Z,29.30
2019-03-26T00:02:44.522Z,29.27
2019-03-26T00:02:45.732Z,29.29
2019-03-26T00:02:46.945Z,29.24
2019-03-26T00:02:48.170Z,29.24
2019-03-26T00:02:49.392Z,29.24
2019-03-26T00:02:50.601Z,29.27
2019-03-26T00:02:51.888Z,29.26
2019-03-26T00:02:53.097Z,29.20
2019-03-26T00:02:54.315Z,29.23
2019-03-26T00:02:55.528Z,29.23
2019-03-26T00:02:56.751Z,29.27
2019-03-26T00:02:57.958Z,29.24
2019-03-26T00:02:59.177Z,29.23
2019-03-26T00:03:00.403Z,29.23
2019-03-26T00:03:01.612Z,29.20
2019-03-26T00:03:02.834Z,29.26
2019-03-26T00:03:04.043Z,29.29
2019-03-26T00:03:05.265Z,29.26
2019-03-26T00:03:06.475Z,29.26
2019-03-26T00:03:07.684Z,29.29
2019-03-26T00:03:08.898Z,29.27
2019-03-26T00:03:10.106Z,29.28
2019-03-26T00:03:11.330Z,29.26
2019-03-26T00:03:12.540Z,29.27
2019-03-26T00:03:13.781Z,29.24
2019-03-26T00:03:15.018Z,29.29
2019-03-26T00:03:16.226Z,29.32
2019-03-26T00:03:17.448Z,29.30
2019-03-26T00:03:18.665Z,29.26
2019-03-26T00:03:19.872Z,29.32
2019-03-26T00:03:21.105Z,29.29
2019-03-26T00:03:22.322Z,29.24
2019-03-26T00:03:23.547Z,29.24
2019-03-26T00:03:24.754Z,29.32
2019-03-26T00:03:26.053Z,29.29
2019-03-26T00:03:27.260Z,29.27
2019-03-26T00:03:28.467Z,29.26
2019-03-26T00:03:29.680Z,29.27
2019-03-26T00:03:30.889Z,29.26
2019-03-26T00:03:32.104Z,29.26
2019-03-26T00:03:33.318Z,29.23
2019-03-26T00:03:34.532Z,29.26
2019-03-26T00:03:35.746Z,29.23
2019-03-26T00:03:36.962Z,29.29
2019-03-26T00:03:38.248Z,29.26
2019-03-26T00:03:39.459Z,29.26
2019-03-26T00:03:40.685Z,29.26
2019-03-26T00:03:41.897Z,29.30
2019-03-26T00:03:43.106Z,29.29
2019-03-26T00:03:44.318Z,29.24
2019-03-26T00:03:45.525Z,29.26
2019-03-26T00:03:46.733Z,29.24
2019-03-26T00:03:47.950Z,29.27
2019-03-26T00:03:49.166Z,29.29
2019-03-26T00:03:50.374Z,29.21
2019-03-26T00:04:04.919Z,29.28
2019-03-26T00:04:05.848Z,29.29
2019-03-26T00:04:06.376Z,29.30
2019-03-26T00:04:07.680Z,29.30
2019-03-26T00:04:08.905Z,29.23
2019-03-26T00:04:10.124Z,29.30
2019-03-26T00:04:11.331Z,29.29
2019-03-26T00:04:12.546Z,29.27
2019-03-26T00:04:13.756Z,29.26
2019-03-26T00:04:14.978Z,29.26
2019-03-26T00:04:16.180Z,29.23
2019-03-26T00:04:17.394Z,29.26
2019-03-26T00:04:18.618Z,29.30
2019-03-26T00:04:19.836Z,29.23
2019-03-26T00:04:21.042Z,29.29
2019-03-26T00:04:22.277Z,29.26
2019-03-26T00:04:23.495Z,29.26
2019-03-26T00:04:24.703Z,29.29
2019-03-26T00:04:25.907Z,29.26
2019-03-26T00:04:27.125Z,29.27
2019-03-26T00:04:28.331Z,29.30
2019-03-26T00:04:29.545Z,29.28
2019-03-26T00:04:30.751Z,29.26
2019-03-26T00:04:31.959Z,29.26
2019-03-26T00:04:33.169Z,29.28
2019-03-26T00:04:34.377Z,29.26
2019-03-26T00:04:35.591Z,29.27
2019-03-26T00:04:36.800Z,29.33
2019-03-26T00:04:38.005Z,29.30
2019-03-26T00:04:39.281Z,29.30
2019-03-26T00:04:40.498Z,29.30
2019-03-26T00:04:41.704Z,29.34
2019-03-26T00:04:42.915Z,29.27
2019-03-26T00:04:44.134Z,29.30
2019-03-26T00:04:45.350Z,29.30
2019-03-26T00:04:46.559Z,29.27
2019-03-26T00:04:47.777Z,29.30
2019-03-26T00:04:48.987Z,29.33
2019-03-26T00:04:50.206Z,29.30
2019-03-26T00:04:51.418Z,29.30
2019-03-26T00:04:52.624Z,29.33
2019-03-26T00:04:53.854Z,29.32
2019-03-26T00:04:55.064Z,29.30
2019-03-26T00:04:56.276Z,29.29
2019-03-26T00:04:57.488Z,29.33
2019-03-26T00:04:58.696Z,29.33
2019-03-26T00:04:59.913Z,29.33
2019-03-26T00:05:01.134Z,29.30
2019-03-26T00:05:02.348Z,29.32
2019-03-26T00:05:03.578Z,29.30
2019-03-26T00:05:04.792Z,29.29
2019-03-26T00:05:06.070Z,29.33
2019-03-26T00:05:07.283Z,29.30
2019-03-26T00:05:08.505Z,29.26
2019-03-26T00:05:09.724Z,29.29
2019-03-26T00:05:10.944Z,29.27
2019-03-26T00:05:12.147Z,29.27
2019-03-26T00:05:13.362Z,29.32
2019-03-26T00:05:14.579Z,29.24
2019-03-26T00:05:15.796Z,29.34
2019-03-26T00:05:17.015Z,29.32
2019-03-26T00:05:18.235Z,29.33
2019-03-26T00:05:19.481Z,29.34
2019-03-26T00:05:20.706Z,29.34
2019-03-26T00:05:21.918Z,29.33
2019-03-26T00:05:23.149Z,29.28
2019-03-26T00:05:24.365Z,29.30
2019-03-26T00:05:25.583Z,29.34
2019-03-26T00:05:26.790Z,29.36
2019-03-26T00:05:28.004Z,29.33
2019-03-26T00:05:29.212Z,29.32
2019-03-26T00:05:30.420Z,29.32
2019-03-26T00:05:31.628Z,29.31
2019-03-26T00:05:32.840Z,29.30
2019-03-26T00:05:34.054Z,29.34
2019-03-26T00:05:35.264Z,29.36
2019-03-26T00:05:36.481Z,29.40
2019-03-26T00:05:37.693Z,29.29
2019-03-26T00:05:38.898Z,29.33
2019-03-26T00:05:40.114Z,29.30
2019-03-26T00:05:41.324Z,29.36
2019-03-26T00:05:42.532Z,29.34
2019-03-26T00:05:43.742Z,29.36
2019-03-26T00:05:44.966Z,29.36
2019-03-26T00:05:46.176Z,29.33
2019-03-26T00:05:47.386Z,29.34
2019-03-26T00:05:48.600Z,29.27
2019-03-26T00:05:49.808Z,29.27
2019-03-26T00:05:51.020Z,29.32
2019-03-26T00:05:52.237Z,29.32
2019-03-26T00:05:53.482Z,29.27
2019-03-26T00:05:54.698Z,29.26
2019-03-26T00:05:55.903Z,29.29
2019-03-26T00:05:57.126Z,29.33
2019-03-26T00:05:58.340Z,29.30
2019-03-26T00:05:59.566Z,29.27
2019-03-26T00:06:00.793Z,29.27
2019-03-26T00:06:02.007Z,29.34
2019-03-26T00:06:03.236Z,29.30
2019-03-26T00:06:04.449Z,29.27
2019-03-26T00:06:05.664Z,29.30
2019-03-26T00:06:06.880Z,29.33
2019-03-26T00:06:08.086Z,29.32
2019-03-26T00:06:09.294Z,29.30
2019-03-26T00:06:10.509Z,29.27
2019-03-26T00:06:11.720Z,29.26
2019-03-26T00:06:12.930Z,29.30
2019-03-26T00:06:14.144Z,29.29
2019-03-26T00:06:15.360Z,29.30
2019-03-26T00:06:16.567Z,29.29
2019-03-26T00:06:17.781Z,29.29
2019-03-26T00:06:18.987Z,29.30
2019-03-26T00:06:20.202Z,29.27
2019-03-26T00:06:21.415Z,29.29
2019-03-26T00:06:22.622Z,29.29
2019-03-26T00:06:23.852Z,29.27
2019-03-26T00:06:25.068Z,29.30
2019-03-26T00:06:26.275Z,29.29
2019-03-26T00:06:27.485Z,29.29
2019-03-26T00:06:28.705Z,29.30
2019-03-26T00:06:29.920Z,29.29
2019-03-26T00:06:31.129Z,29.29
2019-03-26T00:06:32.334Z,29.32
2019-03-26T00:06:33.546Z,29.30
2019-03-26T00:06:34.759Z,29.29
2019-03-26T00:06:35.968Z,29.27
2019-03-26T00:06:37.184Z,29.27
2019-03-26T00:06:38.399Z,29.30
2019-03-26T00:06:39.604Z,29.26
2019-03-26T00:06:40.818Z,29.29
2019-03-26T00:06:42.029Z,29.27
2019-03-26T00:06:43.322Z,29.27
2019-03-26T00:06:44.532Z,29.29
2019-03-26T00:06:45.776Z,29.32
2019-03-26T00:06:46.992Z,29.37
2019-03-26T00:06:48.198Z,29.30
2019-03-26T00:06:49.413Z,29.26
2019-03-26T00:06:50.635Z,29.34
2019-03-26T00:06:51.848Z,29.37
2019-03-26T00:06:53.056Z,29.33
2019-03-26T00:06:54.277Z,29.27
2019-03-26T00:06:55.486Z,29.33
2019-03-26T00:06:56.723Z,29.30
2019-03-26T00:06:57.932Z,29.29
2019-03-26T00:06:59.153Z,29.32
2019-03-26T00:07:00.357Z,29.30
2019-03-26T00:07:01.562Z,29.27
2019-03-26T00:07:02.773Z,29.29
2019-03-26T00:07:04.015Z,29.23
2019-03-26T00:07:05.230Z,29.33
2019-03-26T00:07:06.439Z,29.32
2019-03-26T00:07:07.649Z,29.32
2019-03-26T00:07:08.857Z,29.27
2019-03-26T00:07:10.068Z,29.27
2019-03-26T00:07:11.281Z,29.24
2019-03-26T00:07:12.501Z,29.27
2019-03-26T00:07:13.708Z,29.33
2019-03-26T00:07:14.921Z,29.24
2019-03-26T00:07:16.202Z,29.30
2019-03-26T00:07:17.429Z,29.26
2019-03-26T00:07:18.637Z,29.30
2019-03-26T00:07:19.841Z,29.29
2019-03-26T00:07:21.065Z,29.30
2019-03-26T00:07:22.277Z,29.32
2019-03-26T00:07:23.493Z,29.34
2019-03-26T00:07:24.730Z,29.29
2019-03-26T00:07:25.942Z,29.29
2019-03-26T00:07:27.151Z,29.32
2019-03-26T00:07:28.370Z,29.33
2019-03-26T00:07:29.580Z,29.29
2019-03-26T00:07:30.789Z,29.33
2019-03-26T00:07:31.996Z,29.33
2019-03-26T00:07:33.203Z,29.33
2019-03-26T00:07:34.421Z,29.29
2019-03-26T00:07:35.632Z,29.32
2019-03-26T00:07:36.847Z,29.30
2019-03-26T00:07:38.066Z,29.32
2019-03-26T00:07:39.281Z,29.24
2019-03-26T00:07:40.488Z,29.34
2019-03-26T00:07:41.686Z,29.30
2019-03-26T00:07:42.891Z,29.26
2019-03-26T00:07:44.101Z,29.32
2019-03-26T00:07:45.308Z,29.24
2019-03-26T00:07:46.522Z,29.28
2019-03-26T00:07:47.729Z,29.33
2019-03-26T00:07:48.939Z,29.36
2019-03-26T00:07:50.144Z,29.32
2019-03-26T00:07:51.355Z,29.32
2019-03-26T00:07:52.561Z,29.29
2019-03-26T00:07:53.767Z,29.28
2019-03-26T00:07:54.979Z,29.33
2019-03-26T00:07:56.183Z,29.33
2019-03-26T00:07:57.389Z,29.33
2019-03-26T00:07:58.596Z,29.33
2019-03-26T00:07:59.803Z,29.34
2019-03-26T00:08:01.020Z,29.34
2019-03-26T00:08:02.251Z,29.36
2019-03-26T00:08:03.471Z,29.37
2019-03-26T00:08:04.688Z,29.36
2019-03-26T00:08:05.895Z,29.43
2019-03-26T00:08:07.107Z,29.40
2019-03-26T00:08:08.318Z,29.43
2019-03-26T00:08:09.537Z,29.38
2019-03-26T00:08:10.760Z,29.38
2019-03-26T00:08:11.977Z,29.38
2019-03-26T00:08:13.198Z,29.43
2019-03-26T00:08:14.410Z,29.32
2019-03-26T00:08:15.618Z,29.37
2019-03-26T00:08:16.825Z,29.38
2019-03-26T00:08:18.044Z,29.42
2019-03-26T00:08:19.251Z,29.40
2019-03-26T00:08:20.466Z,29.38
2019-03-26T00:08:21.675Z,29.38
2019-03-26T00:08:22.892Z,29.37
2019-03-26T00:08:24.122Z,29.37
2019-03-26T00:08:25.360Z,29.43
2019-03-26T00:08:26.564Z,29.37
2019-03-26T00:08:27.771Z,29.38
2019-03-26T00:08:29.075Z,29.42
2019-03-26T00:08:30.291Z,29.43
2019-03-26T00:08:31.498Z,29.39
2019-03-26T00:08:32.707Z,29.42
2019-03-26T00:08:33.924Z,29.36
2019-03-26T00:08:35.139Z,29.34
2019-03-26T00:08:36.352Z,29.39
2019-03-26T00:08:37.559Z,29.36
2019-03-26T00:08:38.772Z,29.36
2019-03-26T00:08:39.985Z,29.34
2019-03-26T00:08:41.197Z,29.36
2019-03-26T00:08:42.406Z,29.37
2019-03-26T00:08:43.616Z,29.33
2019-03-26T00:08:44.820Z,29.37
2019-03-26T00:08:46.039Z,29.39
2019-03-26T00:08:47.250Z,29.40
2019-03-26T00:08:48.541Z,29.36
2019-03-26T00:08:49.754Z,29.42
2019-03-26T00:08:50.961Z,29.39
2019-03-26T00:08:52.169Z,29.38
2019-03-26T00:08:53.374Z,29.37
2019-03-26T00:08:54.670Z,29.37
2019-03-26T00:08:55.887Z,29.43
2019-03-26T00:08:57.098Z,29.37
2019-03-26T00:08:58.307Z,29.37
2019-03-26T00:08:59.516Z,29.38
2019-03-26T00:09:00.738Z,29.36
2019-03-26T00:09:01.965Z,29.34
2019-03-26T00:09:03.169Z,29.39
2019-03-26T00:09:04.392Z,29.36
2019-03-26T00:09:05.606Z,29.31
2019-03-26T00:09:06.811Z,29.34
2019-03-26T00:09:08.022Z,29.34
2019-03-26T00:09:09.229Z,29.34
2019-03-26T00:09:10.440Z,29.34
2019-03-26T00:09:11.649Z,29.31
2019-03-26T00:09:12.864Z,29.34
2019-03-26T00:09:14.068Z,29.30
2019-03-26T00:09:15.278Z,29.34
2019-03-26T00:09:16.492Z,29.31
2019-03-26T00:09:17.702Z,29.32
2019-03-26T00:09:18.910Z,29.28
2019-03-26T00:09:20.127Z,29.31
2019-03-26T00:09:21.340Z,29.33
2019-03-26T00:09:22.547Z,29.33
2019-03-26T00:09:23.783Z,29.31
2019-03-26T00:09:24.998Z,29.34
2019-03-26T00:09:26.227Z,29.33
2019-03-26T00:09:27.431Z,29.33
2019-03-26T00:09:28.653Z,29.27
2019-03-26T00:09:29.885Z,29.30
2019-03-26T00:09:31.095Z,29.28
2019-03-26T00:09:32.304Z,29.31
2019-03-26T00:09:33.514Z,29.30
2019-03-26T00:09:34.721Z,29.30
2019-03-26T00:09:35.928Z,29.31
2019-03-26T00:09:37.138Z,29.30
2019-03-26T00:09:38.346Z,29.32
2019-03-26T00:09:39.551Z,29.34
2019-03-26T00:09:40.760Z,29.33
2019-03-26T00:09:41.966Z,29.33
2019-03-26T00:09:43.174Z,29.34
2019-03-26T00:09:44.377Z,29.36
2019-03-26T00:09:45.591Z,29.30
2019-03-26T00:09:46.810Z,29.36
2019-03-26T00:09:48.032Z,29.36
2019-03-26T00:09:49.240Z,29.34
2019-03-26T00:09:50.450Z,29.33
2019-03-26T00:09:51.657Z,29.34
2019-03-26T00:09:52.877Z,29.37
2019-03-26T00:09:54.089Z,29.32
2019-03-26T00:09:55.295Z,29.32
2019-03-26T00:09:56.510Z,29.37
2019-03-26T00:09:57.717Z,29.33
2019-03-26T00:09:58.927Z,29.33
2019-03-26T00:10:00.363Z,29.37
2019-03-26T00:10:01.642Z,29.36
2019-03-26T00:10:02.878Z,29.34
2019-03-26T00:10:04.092Z,29.37
2019-03-26T00:10:05.334Z,29.34
2019-03-26T00:10:06.544Z,29.32
2019-03-26T00:10:07.755Z,29.37
2019-03-26T00:10:08.966Z,29.36
2019-03-26T00:10:10.177Z,29.41
2019-03-26T00:10:11.384Z,29.42
2019-03-26T00:10:12.598Z,29.37
2019-03-26T00:10:13.819Z,29.40
2019-03-26T00:10:15.035Z,29.37
2019-03-26T00:10:16.242Z,29.36
2019-03-26T00:10:17.460Z,29.42
2019-03-26T00:10:18.674Z,29.40
2019-03-26T00:10:19.881Z,29.34
2019-03-26T00:10:21.091Z,29.37
2019-03-26T00:10:22.315Z,29.36
2019-03-26T00:10:23.523Z,29.37
2019-03-26T00:10:24.730Z,29.39
2019-03-26T00:10:25.938Z,29.36
2019-03-26T00:10:27.161Z,29.33
2019-03-26T00:10:28.369Z,29.34
2019-03-26T00:10:29.574Z,29.39
2019-03-26T00:10:30.787Z,29.36
2019-03-26T00:10:31.993Z,29.33
2019-03-26T00:10:33.203Z,29.34
2019-03-26T00:10:34.416Z,29.30
2019-03-26T00:10:35.626Z,29.34
2019-03-26T00:10:36.838Z,29.33
2019-03-26T00:10:38.033Z,29.33
2019-03-26T00:10:39.244Z,29.30
2019-03-26T00:10:40.455Z,29.29
2019-03-26T00:10:41.660Z,29.33
2019-03-26T00:10:42.872Z,29.29
2019-03-26T00:10:44.077Z,29.33
2019-03-26T00:10:45.287Z,29.34
2019-03-26T00:10:46.505Z,29.26
2019-03-26T00:10:47.721Z,29.32
2019-03-26T00:10:48.936Z,29.34
2019-03-26T00:10:50.144Z,29.34
2019-03-26T00:10:51.346Z,29.30
2019-03-26T00:10:52.551Z,29.32
2019-03-26T00:10:53.760Z,29.39
2019-03-26T00:10:54.967Z,29.32
2019-03-26T00:10:56.185Z,29.39
2019-03-26T00:10:57.404Z,29.40
2019-03-26T00:10:58.612Z,29.42
2019-03-26T00:10:59.817Z,29.38
2019-03-26T00:11:01.027Z,29.37
2019-03-26T00:11:02.247Z,29.38
2019-03-26T00:11:03.461Z,29.37
2019-03-26T00:11:04.677Z,29.36
2019-03-26T00:11:05.896Z,29.37
2019-03-26T00:11:07.103Z,29.36
2019-03-26T00:11:08.351Z,29.35
2019-03-26T00:11:09.562Z,29.43
2019-03-26T00:11:10.773Z,29.37
2019-03-26T00:11:11.994Z,29.37
2019-03-26T00:11:13.217Z,29.36
2019-03-26T00:11:14.442Z,29.40
2019-03-26T00:11:15.664Z,29.39
2019-03-26T00:11:16.885Z,29.44
2019-03-26T00:11:18.091Z,29.36
2019-03-26T00:11:19.297Z,29.37
2019-03-26T00:11:20.514Z,29.39
2019-03-26T00:11:21.728Z,29.40
2019-03-26T00:11:22.955Z,29.42
2019-03-26T00:11:24.164Z,29.32
2019-03-26T00:11:25.374Z,29.37
2019-03-26T00:11:26.583Z,29.36
2019-03-26T00:11:27.811Z,29.37
2019-03-26T00:11:29.023Z,29.30
2019-03-26T00:11:30.240Z,29.30
2019-03-26T00:11:31.448Z,29.34
2019-03-26T00:11:32.660Z,29.38
2019-03-26T00:11:33.867Z,29.34
2019-03-26T00:11:35.078Z,29.36
2019-03-26T00:11:36.291Z,29.36
2019-03-26T00:11:37.512Z,29.37
2019-03-26T00:11:38.728Z,29.38
2019-03-26T00:11:39.943Z,29.37
2019-03-26T00:11:41.160Z,29.36
2019-03-26T00:11:42.383Z,29.34
2019-03-26T00:11:43.596Z,29.32
2019-03-26T00:11:44.802Z,29.34
2019-03-26T00:11:46.010Z,29.33
2019-03-26T00:11:47.218Z,29.37
2019-03-26T00:11:48.430Z,29.33
2019-03-26T00:11:49.644Z,29.36
2019-03-26T00:11:50.860Z,29.36
2019-03-26T00:11:52.077Z,29.36
2019-03-26T00:11:53.436Z,29.34
2019-03-26T00:11:54.652Z,29.33
2019-03-26T00:11:55.859Z,29.36
2019-03-26T00:11:57.081Z,29.29
2019-03-26T00:11:58.299Z,29.36
2019-03-26T00:11:59.515Z,29.31
2019-03-26T00:12:00.728Z,29.33
2019-03-26T00:12:01.939Z,29.37
2019-03-26T00:12:03.158Z,29.34
2019-03-26T00:12:04.370Z,29.33
2019-03-26T00:12:05.595Z,29.34
2019-03-26T00:12:06.812Z,29.32
2019-03-26T00:12:08.020Z,29.33
2019-03-26T00:12:09.234Z,29.37
2019-03-26T00:12:10.452Z,29.32
2019-03-26T00:12:11.658Z,29.33
2019-03-26T00:12:12.867Z,29.38
2019-03-26T00:12:14.081Z,29.36
2019-03-26T00:12:15.288Z,29.34
2019-03-26T00:12:16.496Z,29.29
2019-03-26T00:12:17.704Z,29.39
2019-03-26T00:12:18.913Z,29.30
2019-03-26T00:12:20.120Z,29.29
2019-03-26T00:12:21.328Z,29.34
2019-03-26T00:12:22.547Z,29.32
2019-03-26T00:12:23.751Z,29.30
2019-03-26T00:12:24.963Z,29.29
2019-03-26T00:12:26.168Z,29.27
2019-03-26T00:12:27.382Z,29.33
2019-03-26T00:12:28.610Z,29.30
2019-03-26T00:12:29.823Z,29.34
2019-03-26T00:12:31.032Z,29.30
2019-03-26T00:12:32.327Z,29.30
2019-03-26T00:12:33.536Z,29.33
2019-03-26T00:12:34.739Z,29.30
2019-03-26T00:12:35.951Z,29.32
2019-03-26T00:12:37.167Z,29.30
2019-03-26T00:12:38.379Z,29.33
2019-03-26T00:12:39.589Z,29.34
2019-03-26T00:12:40.820Z,29.30
2019-03-26T00:12:42.022Z,29.32
2019-03-26T00:12:43.232Z,29.24
2019-03-26T00:12:44.437Z,29.32
2019-03-26T00:12:45.647Z,29.34
2019-03-26T00:12:46.852Z,29.30
2019-03-26T00:12:48.056Z,29.33
2019-03-26T00:12:49.270Z,29.30
2019-03-26T00:12:50.480Z,29.28
2019-03-26T00:12:51.691Z,29.33
2019-03-26T00:12:52.969Z,29.34
2019-03-26T00:12:54.181Z,29.36
2019-03-26T00:12:55.392Z,29.36
2019-03-26T00:12:56.605Z,29.30
2019-03-26T00:12:57.828Z,29.36
2019-03-26T00:12:59.037Z,29.32
2019-03-26T00:13:00.241Z,29.37
2019-03-26T00:13:01.447Z,29.38
2019-03-26T00:13:02.656Z,29.42
2019-03-26T00:13:03.877Z,29.37
2019-03-26T00:13:05.091Z,29.38
2019-03-26T00:13:06.308Z,29.37
2019-03-26T00:13:07.518Z,29.38
2019-03-26T00:13:08.729Z,29.38
2019-03-26T00:13:09.952Z,29.40
2019-03-26T00:13:11.163Z,29.38
2019-03-26T00:13:12.377Z,29.37
2019-03-26T00:13:13.583Z,29.44
2019-03-26T00:13:14.808Z,29.46
2019-03-26T00:13:16.011Z,29.41
2019-03-26T00:13:17.218Z,29.43
2019-03-26T00:13:18.429Z,29.43
2019-03-26T00:13:19.640Z,29.44
2019-03-26T00:13:20.852Z,29.44
2019-03-26T00:13:22.075Z,29.43
2019-03-26T00:13:23.298Z,29.42
2019-03-26T00:13:24.502Z,29.45
2019-03-26T00:13:25.712Z,29.41
2019-03-26T00:13:26.925Z,29.49
2019-03-26T00:13:28.132Z,29.46
2019-03-26T00:13:29.361Z,29.46
2019-03-26T00:13:30.575Z,29.44
2019-03-26T00:13:31.790Z,29.46
2019-03-26T00:13:33.002Z,29.44
2019-03-26T00:13:34.217Z,29.44
2019-03-26T00:13:35.435Z,29.40
2019-03-26T00:13:36.640Z,29.46
2019-03-26T00:13:37.842Z,29.44
2019-03-26T00:13:39.057Z,29.41
2019-03-26T00:13:40.280Z,29.44
2019-03-26T00:13:41.502Z,29.43
2019-03-26T00:13:42.717Z,29.43
2019-03-26T00:13:43.936Z,29.38
2019-03-26T00:13:45.150Z,29.37
2019-03-26T00:13:46.359Z,29.45
2019-03-26T00:13:47.580Z,29.43
2019-03-26T00:13:48.790Z,29.40
2019-03-26T00:13:50.002Z,29.41
2019-03-26T00:13:51.216Z,29.43
2019-03-26T00:13:52.421Z,29.40
2019-03-26T00:13:53.632Z,29.46
2019-03-26T00:13:57.626Z,29.38
2019-03-26T00:13:59.092Z,29.38
2019-03-26T00:14:00.378Z,29.37
2019-03-26T00:14:01.595Z,29.40
2019-03-26T00:14:02.802Z,29.38
2019-03-26T00:14:04.012Z,29.40
2019-03-26T00:14:05.217Z,29.32
2019-03-26T00:14:06.428Z,29.38
2019-03-26T00:14:07.647Z,29.40
2019-03-26T00:14:08.860Z,29.36
2019-03-26T00:14:10.074Z,29.35
2019-03-26T00:14:11.283Z,29.35
2019-03-26T00:14:12.491Z,29.30
2019-03-26T00:14:13.698Z,29.32
2019-03-26T00:14:14.916Z,29.38
2019-03-26T00:14:16.120Z,29.40
2019-03-26T00:14:17.359Z,29.38
2019-03-26T00:14:18.576Z,29.37
2019-03-26T00:14:19.785Z,29.34
2019-03-26T00:14:20.997Z,29.40
2019-03-26T00:14:22.207Z,29.40
2019-03-26T00:14:23.410Z,29.37
2019-03-26T00:14:24.650Z,29.34
2019-03-26T00:14:25.869Z,29.40
2019-03-26T00:14:27.087Z,29.38
2019-03-26T00:14:28.298Z,29.36
2019-03-26T00:14:29.532Z,29.36
2019-03-26T00:14:30.740Z,29.37
2019-03-26T00:14:31.944Z,29.40
2019-03-26T00:14:33.159Z,29.38
2019-03-26T00:14:34.361Z,29.40
2019-03-26T00:14:35.578Z,29.36
2019-03-26T00:14:36.798Z,29.38
2019-03-26T00:14:38.006Z,29.34
2019-03-26T00:14:39.235Z,29.36
2019-03-26T00:14:40.444Z,29.37
2019-03-26T00:14:41.656Z,29.34
2019-03-26T00:14:42.959Z,29.36
2019-03-26T00:14:44.175Z,29.40
2019-03-26T00:14:45.386Z,29.37
2019-03-26T00:14:46.599Z,29.37
2019-03-26T00:14:47.811Z,29.35
2019-03-26T00:14:49.105Z,29.36
2019-03-26T00:14:50.311Z,29.37
2019-03-26T00:14:51.522Z,29.38
2019-03-26T00:14:52.739Z,29.36
2019-03-26T00:14:53.950Z,29.36
2019-03-26T00:14:55.158Z,29.37
2019-03-26T00:14:56.362Z,29.36
2019-03-26T00:14:57.579Z,29.42
2019-03-26T00:14:58.796Z,29.40
2019-03-26T00:15:00.014Z,29.37
2019-03-26T00:15:01.250Z,29.32
2019-03-26T00:15:02.460Z,29.38
2019-03-26T00:15:03.669Z,29.36
2019-03-26T00:15:04.882Z,29.38
2019-03-26T00:15:06.092Z,29.38
2019-03-26T00:15:07.301Z,29.37
2019-03-26T00:15:08.513Z,29.40
2019-03-26T00:15:09.720Z,29.37
2019-03-26T00:15:10.934Z,29.38
2019-03-26T00:15:12.154Z,29.40
2019-03-26T00:15:13.371Z,29.37
2019-03-26T00:15:14.578Z,29.37
2019-03-26T00:15:15.785Z,29.34
2019-03-26T00:15:17.152Z,29.37
2019-03-26T00:15:18.365Z,29.36
2019-03-26T00:15:19.585Z,29.36
2019-03-26T00:15:20.794Z,29.36
2019-03-26T00:15:22.001Z,29.34
2019-03-26T00:15:23.210Z,29.34
2019-03-26T00:15:24.427Z,29.36
2019-03-26T00:15:25.653Z,29.37
2019-03-26T00:15:26.863Z,29.37
2019-03-26T00:15:28.089Z,29.38
2019-03-26T00:15:29.308Z,29.38
2019-03-26T00:15:30.542Z,29.37
2019-03-26T00:15:31.746Z,29.40
2019-03-26T00:15:32.964Z,29.40
2019-03-26T00:15:34.179Z,29.43
2019-03-26T00:15:35.386Z,29.40
2019-03-26T00:15:36.613Z,29.38
2019-03-26T00:15:37.832Z,29.40
2019-03-26T00:15:39.061Z,29.39
2019-03-26T00:15:40.285Z,29.38
2019-03-26T00:15:41.499Z,29.37
2019-03-26T00:15:42.712Z,29.39
2019-03-26T00:15:43.926Z,29.37
2019-03-26T00:15:45.152Z,29.43
2019-03-26T00:15:46.359Z,29.37
2019-03-26T00:15:47.566Z,29.32
2019-03-26T00:15:48.776Z,29.38
2019-03-26T00:15:49.987Z,29.42
2019-03-26T00:15:51.201Z,29.43
2019-03-26T00:15:52.408Z,29.40
2019-03-26T00:15:53.620Z,29.40
2019-03-26T00:15:54.836Z,29.41